sensor_id;sensor_type;location;lat;lon;timestamp;temperature;humidity
23156;DHT22;11746;50.876;4.246;2022-12-31T00:01:06;13.90;99.90
23156;DHT22;11746;50.876;4.246;2022-12-31T00:03:32;14.00;99.90
23156;DHT22;11746;50.876;4.246;2022-12-31T00:05:58;14.00;99.90
23156;DHT22;11746;50.876;4.246;2022-12-31T00:08:29;14.00;99.90
23156;DHT22;11746;50.876;4.246;2022-12-31T00:10:55;14.00;99.90
23156;DHT22;11746;50.876;4.246;2022-12-31T00:13:23;14.00;99.90
23156;DHT22;11746;50.876;4.246;2022-12-31T00:15:48;14.10;99.90
23156;DHT22;11746;50.876;4.246;2022-12-31T00:18:17;14.10;99.90
23156;DHT22;11746;50.876;4.246;2022-12-31T00:20:43;14.10;99.90
23156;DHT22;11746;50.876;4.246;2022-12-31T00:23:09;14.10;99.90
23156;DHT22;11746;50.876;4.246;2022-12-31T00:25:35;14.10;99.90
23156;DHT22;11746;50.876;4.246;2022-12-31T00:28:06;14.20;99.90
23156;DHT22;11746;50.876;4.246;2022-12-31T00:30:33;14.20;99.90
23156;DHT22;11746;50.876;4.246;2022-12-31T00:33:00;14.30;99.90
23156;DHT22;11746;50.876;4.246;2022-12-31T00:35:29;14.40;99.90
23156;DHT22;11746;50.876;4.246;2022-12-31T00:37:55;14.50;99.90
23156;DHT22;11746;50.876;4.246;2022-12-31T00:40:23;14.50;99.90
23156;DHT22;11746;50.876;4.246;2022-12-31T00:42:53;14.60;99.90
23156;DHT22;11746;50.876;4.246;2022-12-31T00:45:19;14.70;99.90
23156;DHT22;11746;50.876;4.246;2022-12-31T00:47:45;14.60;99.90
23156;DHT22;11746;50.876;4.246;2022-12-31T00:50:10;14.80;99.90
23156;DHT22;11746;50.876;4.246;2022-12-31T00:52:38;14.90;99.90
23156;DHT22;11746;50.876;4.246;2022-12-31T00:55:04;15.10;99.90
23156;DHT22;11746;50.876;4.246;2022-12-31T00:57:30;15.00;99.90
23156;DHT22;11746;50.876;4.246;2022-12-31T00:59:56;15.00;99.90
23156;DHT22;11746;50.876;4.246;2022-12-31T01:02:21;15.10;99.90
23156;DHT22;11746;50.876;4.246;2022-12-31T01:04:49;15.10;99.90
23156;DHT22;11746;50.876;4.246;2022-12-31T01:07:15;15.10;99.90
23156;DHT22;11746;50.876;4.246;2022-12-31T01:09:41;14.90;99.90
23156;DHT22;11746;50.876;4.246;2022-12-31T01:12:06;14.80;99.90
23156;DHT22;11746;50.876;4.246;2022-12-31T01:14:32;14.50;99.90
23156;DHT22;11746;50.876;4.246;2022-12-31T01:16:58;14.30;99.90
23156;DHT22;11746;50.876;4.246;2022-12-31T01:19:27;13.90;99.90
23156;DHT22;11746;50.876;4.246;2022-12-31T01:21:55;13.70;99.90
23156;DHT22;11746;50.876;4.246;2022-12-31T01:24:21;13.60;99.90
23156;DHT22;11746;50.876;4.246;2022-12-31T01:26:49;13.50;99.90
23156;DHT22;11746;50.876;4.246;2022-12-31T01:29:18;13.50;99.90
23156;DHT22;11746;50.876;4.246;2022-12-31T01:31:49;13.50;99.90
23156;DHT22;11746;50.876;4.246;2022-12-31T01:34:17;13.50;99.90
23156;DHT22;11746;50.876;4.246;2022-12-31T01:36:43;13.40;99.90
23156;DHT22;11746;50.876;4.246;2022-12-31T01:39:10;13.50;99.90
23156;DHT22;11746;50.876;4.246;2022-12-31T01:41:41;13.40;99.90
23156;DHT22;11746;50.876;4.246;2022-12-31T01:46:48;13.20;99.90
23156;DHT22;11746;50.876;4.246;2022-12-31T01:51:50;13.20;99.90
23156;DHT22;11746;50.876;4.246;2022-12-31T01:54:21;13.30;99.90
23156;DHT22;11746;50.876;4.246;2022-12-31T01:56:49;13.40;99.90
23156;DHT22;11746;50.876;4.246;2022-12-31T01:59:16;13.60;99.90
23156;DHT22;11746;50.876;4.246;2022-12-31T02:01:43;13.80;99.90
23156;DHT22;11746;50.876;4.246;2022-12-31T02:04:11;13.90;99.90
23156;DHT22;11746;50.876;4.246;2022-12-31T02:06:42;14.10;99.90
23156;DHT22;11746;50.876;4.246;2022-12-31T02:09:09;14.30;99.90
23156;DHT22;11746;50.876;4.246;2022-12-31T02:11:35;14.40;99.90
23156;DHT22;11746;50.876;4.246;2022-12-31T02:14:32;14.50;99.90
23156;DHT22;11746;50.876;4.246;2022-12-31T02:25:21;14.60;99.90
23156;DHT22;11746;50.876;4.246;2022-12-31T02:30:36;14.50;99.90
23156;DHT22;11746;50.876;4.246;2022-12-31T02:33:24;14.40;99.90
23156;DHT22;11746;50.876;4.246;2022-12-31T02:36:12;14.50;99.90
23156;DHT22;11746;50.876;4.246;2022-12-31T02:38:47;14.50;99.90
23156;DHT22;11746;50.876;4.246;2022-12-31T02:41:16;14.50;99.90
23156;DHT22;11746;50.876;4.246;2022-12-31T02:44:19;14.60;99.90
23156;DHT22;11746;50.876;4.246;2022-12-31T02:54:51;14.60;99.90
23156;DHT22;11746;50.876;4.246;2022-12-31T02:57:28;14.60;99.90
23156;DHT22;11746;50.876;4.246;2022-12-31T03:00:00;14.50;99.90
23156;DHT22;11746;50.876;4.246;2022-12-31T03:02:50;14.50;99.90
23156;DHT22;11746;50.876;4.246;2022-12-31T03:05:20;14.60;99.90
23156;DHT22;11746;50.876;4.246;2022-12-31T03:07:47;14.60;99.90
23156;DHT22;11746;50.876;4.246;2022-12-31T03:10:13;14.70;99.90
23156;DHT22;11746;50.876;4.246;2022-12-31T03:12:42;14.70;99.90
23156;DHT22;11746;50.876;4.246;2022-12-31T03:15:27;14.70;99.90
23156;DHT22;11746;50.876;4.246;2022-12-31T03:20:48;14.90;99.90
23156;DHT22;11746;50.876;4.246;2022-12-31T03:23:34;15.10;99.90
23156;DHT22;11746;50.876;4.246;2022-12-31T03:26:01;15.10;99.90
23156;DHT22;11746;50.876;4.246;2022-12-31T03:28:29;15.10;99.90
23156;DHT22;11746;50.876;4.246;2022-12-31T03:31:00;15.20;99.90
23156;DHT22;11746;50.876;4.246;2022-12-31T03:33:34;15.20;99.90
23156;DHT22;11746;50.876;4.246;2022-12-31T03:36:08;15.30;99.90
23156;DHT22;11746;50.876;4.246;2022-12-31T03:38:34;15.30;99.90
23156;DHT22;11746;50.876;4.246;2022-12-31T03:41:02;15.30;99.90
23156;DHT22;11746;50.876;4.246;2022-12-31T03:43:28;15.30;99.90
23156;DHT22;11746;50.876;4.246;2022-12-31T03:45:54;15.30;99.90
23156;DHT22;11746;50.876;4.246;2022-12-31T03:48:23;15.30;99.90
23156;DHT22;11746;50.876;4.246;2022-12-31T03:50:50;15.30;99.90
23156;DHT22;11746;50.876;4.246;2022-12-31T03:53:16;15.30;99.90
23156;DHT22;11746;50.876;4.246;2022-12-31T03:55:44;15.40;99.90
23156;DHT22;11746;50.876;4.246;2022-12-31T03:58:09;15.50;99.90
23156;DHT22;11746;50.876;4.246;2022-12-31T04:00:36;15.50;99.90
23156;DHT22;11746;50.876;4.246;2022-12-31T04:03:03;15.50;99.90
23156;DHT22;11746;50.876;4.246;2022-12-31T04:05:30;15.50;99.90
23156;DHT22;11746;50.876;4.246;2022-12-31T04:07:56;15.50;99.90
23156;DHT22;11746;50.876;4.246;2022-12-31T04:10:22;15.50;99.90
23156;DHT22;11746;50.876;4.246;2022-12-31T04:12:50;15.60;99.90
23156;DHT22;11746;50.876;4.246;2022-12-31T04:15:18;15.60;99.90
23156;DHT22;11746;50.876;4.246;2022-12-31T04:17:47;15.60;99.90
23156;DHT22;11746;50.876;4.246;2022-12-31T04:20:14;15.60;99.90
23156;DHT22;11746;50.876;4.246;2022-12-31T04:22:44;15.60;99.90
23156;DHT22;11746;50.876;4.246;2022-12-31T04:25:09;15.70;99.90
23156;DHT22;11746;50.876;4.246;2022-12-31T04:27:40;15.70;99.90
23156;DHT22;11746;50.876;4.246;2022-12-31T04:30:08;15.60;99.90
23156;DHT22;11746;50.876;4.246;2022-12-31T04:32:34;15.30;99.90
23156;DHT22;11746;50.876;4.246;2022-12-31T04:35:00;15.20;99.90
23156;DHT22;11746;50.876;4.246;2022-12-31T04:37:26;15.10;99.90
23156;DHT22;11746;50.876;4.246;2022-12-31T04:39:54;15.00;99.90
23156;DHT22;11746;50.876;4.246;2022-12-31T04:42:23;15.00;99.90
23156;DHT22;11746;50.876;4.246;2022-12-31T04:44:51;15.00;99.90
23156;DHT22;11746;50.876;4.246;2022-12-31T04:47:20;15.00;99.90
23156;DHT22;11746;50.876;4.246;2022-12-31T04:49:47;15.10;99.90
23156;DHT22;11746;50.876;4.246;2022-12-31T04:52:13;15.10;99.90
23156;DHT22;11746;50.876;4.246;2022-12-31T04:54:38;15.10;99.90
23156;DHT22;11746;50.876;4.246;2022-12-31T04:57:04;15.30;99.90
23156;DHT22;11746;50.876;4.246;2022-12-31T04:59:30;15.40;99.90
23156;DHT22;11746;50.876;4.246;2022-12-31T05:01:56;15.50;99.90
23156;DHT22;11746;50.876;4.246;2022-12-31T05:04:21;15.70;99.90
23156;DHT22;11746;50.876;4.246;2022-12-31T05:06:47;15.80;99.90
23156;DHT22;11746;50.876;4.246;2022-12-31T05:09:13;15.90;99.90
23156;DHT22;11746;50.876;4.246;2022-12-31T05:11:38;15.90;99.90
23156;DHT22;11746;50.876;4.246;2022-12-31T05:14:04;16.00;99.90
23156;DHT22;11746;50.876;4.246;2022-12-31T05:16:29;16.00;99.90
23156;DHT22;11746;50.876;4.246;2022-12-31T05:18:55;16.00;99.90
23156;DHT22;11746;50.876;4.246;2022-12-31T05:21:21;16.00;99.90
23156;DHT22;11746;50.876;4.246;2022-12-31T05:23:47;16.00;99.90
23156;DHT22;11746;50.876;4.246;2022-12-31T05:26:13;16.10;99.90
23156;DHT22;11746;50.876;4.246;2022-12-31T05:28:41;16.20;99.90
23156;DHT22;11746;50.876;4.246;2022-12-31T05:31:09;16.20;99.90
23156;DHT22;11746;50.876;4.246;2022-12-31T05:33:38;16.20;99.90
23156;DHT22;11746;50.876;4.246;2022-12-31T05:36:04;16.20;99.90
23156;DHT22;11746;50.876;4.246;2022-12-31T05:38:32;16.10;99.90
23156;DHT22;11746;50.876;4.246;2022-12-31T05:41:06;16.10;99.90
23156;DHT22;11746;50.876;4.246;2022-12-31T05:43:33;16.10;99.90
23156;DHT22;11746;50.876;4.246;2022-12-31T05:46:03;16.10;99.90
23156;DHT22;11746;50.876;4.246;2022-12-31T05:48:31;16.10;99.90
23156;DHT22;11746;50.876;4.246;2022-12-31T05:50:59;16.00;99.90
23156;DHT22;11746;50.876;4.246;2022-12-31T05:53:25;16.10;99.90
23156;DHT22;11746;50.876;4.246;2022-12-31T05:55:51;16.10;99.90
23156;DHT22;11746;50.876;4.246;2022-12-31T05:58:19;16.10;99.90
23156;DHT22;11746;50.876;4.246;2022-12-31T06:00:48;16.10;99.90
23156;DHT22;11746;50.876;4.246;2022-12-31T06:03:15;16.00;99.90
23156;DHT22;11746;50.876;4.246;2022-12-31T06:05:41;16.10;99.90
23156;DHT22;11746;50.876;4.246;2022-12-31T06:08:07;16.10;99.90
23156;DHT22;11746;50.876;4.246;2022-12-31T06:10:33;16.10;99.90
23156;DHT22;11746;50.876;4.246;2022-12-31T06:12:58;16.10;99.90
23156;DHT22;11746;50.876;4.246;2022-12-31T06:15:24;16.10;99.90
23156;DHT22;11746;50.876;4.246;2022-12-31T06:17:50;16.10;99.90
23156;DHT22;11746;50.876;4.246;2022-12-31T06:20:18;16.20;99.90
23156;DHT22;11746;50.876;4.246;2022-12-31T06:22:43;16.20;99.90
23156;DHT22;11746;50.876;4.246;2022-12-31T06:25:09;16.10;99.90
23156;DHT22;11746;50.876;4.246;2022-12-31T06:27:34;16.00;99.90
23156;DHT22;11746;50.876;4.246;2022-12-31T06:30:03;16.00;99.90
23156;DHT22;11746;50.876;4.246;2022-12-31T06:32:28;16.10;99.90
23156;DHT22;11746;50.876;4.246;2022-12-31T06:34:55;16.10;99.90
23156;DHT22;11746;50.876;4.246;2022-12-31T06:37:20;16.10;99.90
23156;DHT22;11746;50.876;4.246;2022-12-31T06:39:48;16.10;99.90
23156;DHT22;11746;50.876;4.246;2022-12-31T06:42:16;16.10;99.90
23156;DHT22;11746;50.876;4.246;2022-12-31T06:44:44;16.10;99.90
23156;DHT22;11746;50.876;4.246;2022-12-31T06:47:12;16.10;99.90
23156;DHT22;11746;50.876;4.246;2022-12-31T06:49:38;16.10;99.90
23156;DHT22;11746;50.876;4.246;2022-12-31T06:52:05;16.10;99.90
23156;DHT22;11746;50.876;4.246;2022-12-31T06:54:31;16.10;99.90
23156;DHT22;11746;50.876;4.246;2022-12-31T06:56:56;16.20;99.90
23156;DHT22;11746;50.876;4.246;2022-12-31T06:59:27;16.10;99.90
23156;DHT22;11746;50.876;4.246;2022-12-31T07:04:38;15.60;99.90
23156;DHT22;11746;50.876;4.246;2022-12-31T07:18:02;15.20;99.90
23156;DHT22;11746;50.876;4.246;2022-12-31T07:20:31;15.20;99.90
23156;DHT22;11746;50.876;4.246;2022-12-31T07:22:57;15.20;99.90
23156;DHT22;11746;50.876;4.246;2022-12-31T07:25:23;15.20;99.90
23156;DHT22;11746;50.876;4.246;2022-12-31T07:30:29;15.30;99.90
23156;DHT22;11746;50.876;4.246;2022-12-31T07:44:20;15.60;99.90
23156;DHT22;11746;50.876;4.246;2022-12-31T07:46:56;15.70;99.90
23156;DHT22;11746;50.876;4.246;2022-12-31T07:49:23;15.80;99.90
23156;DHT22;11746;50.876;4.246;2022-12-31T07:51:53;15.60;99.90
23156;DHT22;11746;50.876;4.246;2022-12-31T07:54:19;15.50;99.90
23156;DHT22;11746;50.876;4.246;2022-12-31T07:56:51;15.40;99.90
23156;DHT22;11746;50.876;4.246;2022-12-31T08:04:55;15.30;99.90
23156;DHT22;11746;50.876;4.246;2022-12-31T08:10:43;15.50;99.90
23156;DHT22;11746;50.876;4.246;2022-12-31T08:13:11;15.60;99.90
23156;DHT22;11746;50.876;4.246;2022-12-31T08:15:38;15.60;99.90
23156;DHT22;11746;50.876;4.246;2022-12-31T08:18:05;15.70;99.90
23156;DHT22;11746;50.876;4.246;2022-12-31T08:20:32;15.70;99.90
23156;DHT22;11746;50.876;4.246;2022-12-31T08:25:39;15.90;99.90
23156;DHT22;11746;50.876;4.246;2022-12-31T08:31:01;15.80;99.90
23156;DHT22;11746;50.876;4.246;2022-12-31T08:33:43;15.90;99.90
23156;DHT22;11746;50.876;4.246;2022-12-31T08:41:54;16.10;99.90
23156;DHT22;11746;50.876;4.246;2022-12-31T08:47:06;16.20;99.90
23156;DHT22;11746;50.876;4.246;2022-12-31T08:49:34;16.30;99.90
23156;DHT22;11746;50.876;4.246;2022-12-31T08:52:05;16.30;99.90
23156;DHT22;11746;50.876;4.246;2022-12-31T08:54:37;16.30;99.90
23156;DHT22;11746;50.876;4.246;2022-12-31T09:00:12;16.30;99.90
23156;DHT22;11746;50.876;4.246;2022-12-31T09:05:52;16.30;99.90
23156;DHT22;11746;50.876;4.246;2022-12-31T09:11:21;16.30;99.90
23156;DHT22;11746;50.876;4.246;2022-12-31T09:14:14;16.30;99.90
23156;DHT22;11746;50.876;4.246;2022-12-31T09:19:12;16.30;99.90
23156;DHT22;11746;50.876;4.246;2022-12-31T09:21:41;16.30;99.90
23156;DHT22;11746;50.876;4.246;2022-12-31T09:24:13;16.30;99.90
23156;DHT22;11746;50.876;4.246;2022-12-31T09:27:05;16.40;99.90
23156;DHT22;11746;50.876;4.246;2022-12-31T09:35:35;16.30;99.90
23156;DHT22;11746;50.876;4.246;2022-12-31T09:38:27;16.20;99.90
23156;DHT22;11746;50.876;4.246;2022-12-31T09:57:52;15.30;99.90
23156;DHT22;11746;50.876;4.246;2022-12-31T10:00:33;15.50;99.90
23156;DHT22;11746;50.876;4.246;2022-12-31T10:03:28;15.60;99.90
23156;DHT22;11746;50.876;4.246;2022-12-31T10:06:15;15.70;99.90
23156;DHT22;11746;50.876;4.246;2022-12-31T10:14:04;16.00;99.90
23156;DHT22;11746;50.876;4.246;2022-12-31T10:30:22;16.30;99.90
23156;DHT22;11746;50.876;4.246;2022-12-31T10:33:22;16.30;99.90
23156;DHT22;11746;50.876;4.246;2022-12-31T10:38:51;16.20;99.90
23156;DHT22;11746;50.876;4.246;2022-12-31T10:50:36;16.20;99.90
23156;DHT22;11746;50.876;4.246;2022-12-31T10:53:18;16.20;99.90
23156;DHT22;11746;50.876;4.246;2022-12-31T11:02:28;16.30;99.90
23156;DHT22;11746;50.876;4.246;2022-12-31T11:11:27;16.40;99.90
23156;DHT22;11746;50.876;4.246;2022-12-31T11:24:38;15.80;99.90
23156;DHT22;11746;50.876;4.246;2022-12-31T11:30:24;15.80;99.90
23156;DHT22;11746;50.876;4.246;2022-12-31T11:38:42;15.80;99.90
23156;DHT22;11746;50.876;4.246;2022-12-31T11:41:21;15.80;99.90
23156;DHT22;11746;50.876;4.246;2022-12-31T11:46:47;15.90;99.90
23156;DHT22;11746;50.876;4.246;2022-12-31T11:59:58;16.20;99.90
23156;DHT22;11746;50.876;4.246;2022-12-31T12:02:42;16.20;99.90
23156;DHT22;11746;50.876;4.246;2022-12-31T12:05:17;16.30;99.90
23156;DHT22;11746;50.876;4.246;2022-12-31T12:07:47;16.30;99.90
23156;DHT22;11746;50.876;4.246;2022-12-31T12:12:52;16.40;99.90
23156;DHT22;11746;50.876;4.246;2022-12-31T12:15:32;16.40;99.90
23156;DHT22;11746;50.876;4.246;2022-12-31T12:18:12;16.40;99.90
23156;DHT22;11746;50.876;4.246;2022-12-31T12:20:43;16.30;99.90
23156;DHT22;11746;50.876;4.246;2022-12-31T12:23:26;16.30;99.90
23156;DHT22;11746;50.876;4.246;2022-12-31T12:25:57;16.30;99.90
23156;DHT22;11746;50.876;4.246;2022-12-31T12:28:26;16.20;99.90
23156;DHT22;11746;50.876;4.246;2022-12-31T12:31:01;16.10;99.90
23156;DHT22;11746;50.876;4.246;2022-12-31T12:33:29;16.20;99.90
23156;DHT22;11746;50.876;4.246;2022-12-31T12:36:06;16.20;99.90
23156;DHT22;11746;50.876;4.246;2022-12-31T12:38:33;16.10;99.90
23156;DHT22;11746;50.876;4.246;2022-12-31T12:41:03;16.10;99.90
23156;DHT22;11746;50.876;4.246;2022-12-31T12:43:36;16.10;99.90
23156;DHT22;11746;50.876;4.246;2022-12-31T12:46:06;16.10;99.90
23156;DHT22;11746;50.876;4.246;2022-12-31T12:48:48;16.10;99.90
23156;DHT22;11746;50.876;4.246;2022-12-31T12:54:15;16.00;99.90
23156;DHT22;11746;50.876;4.246;2022-12-31T13:10:58;16.00;99.90
23156;DHT22;11746;50.876;4.246;2022-12-31T13:13:42;16.00;99.90
23156;DHT22;11746;50.876;4.246;2022-12-31T13:16:38;16.10;99.90
23156;DHT22;11746;50.876;4.246;2022-12-31T13:24:57;16.00;99.90
23156;DHT22;11746;50.876;4.246;2022-12-31T13:30:12;16.00;99.90
23156;DHT22;11746;50.876;4.246;2022-12-31T13:32:44;16.00;99.90
23156;DHT22;11746;50.876;4.246;2022-12-31T13:35:40;16.00;99.90
23156;DHT22;11746;50.876;4.246;2022-12-31T13:38:28;16.00;99.90
23156;DHT22;11746;50.876;4.246;2022-12-31T13:46:43;16.10;99.90
23156;DHT22;11746;50.876;4.246;2022-12-31T13:49:20;16.00;99.90
23156;DHT22;11746;50.876;4.246;2022-12-31T13:51:54;16.00;99.90
23156;DHT22;11746;50.876;4.246;2022-12-31T13:54:50;16.00;99.90
23156;DHT22;11746;50.876;4.246;2022-12-31T14:03:07;16.10;99.90
23156;DHT22;11746;50.876;4.246;2022-12-31T14:06:04;16.00;99.90
23156;DHT22;11746;50.876;4.246;2022-12-31T14:08:32;16.10;99.90
23156;DHT22;11746;50.876;4.246;2022-12-31T14:11:25;16.00;99.90
23156;DHT22;11746;50.876;4.246;2022-12-31T14:14:21;16.00;99.90
23156;DHT22;11746;50.876;4.246;2022-12-31T14:17:14;16.00;99.90
23156;DHT22;11746;50.876;4.246;2022-12-31T14:19:44;16.00;99.90
23156;DHT22;11746;50.876;4.246;2022-12-31T14:22:38;15.90;99.90
23156;DHT22;11746;50.876;4.246;2022-12-31T14:25:37;15.90;99.90
23156;DHT22;11746;50.876;4.246;2022-12-31T14:28:02;15.80;99.90
23156;DHT22;11746;50.876;4.246;2022-12-31T14:30:33;15.90;99.90
23156;DHT22;11746;50.876;4.246;2022-12-31T14:36:27;15.80;99.90
23156;DHT22;11746;50.876;4.246;2022-12-31T14:38:52;15.80;99.90
23156;DHT22;11746;50.876;4.246;2022-12-31T14:44:56;15.80;99.90
23156;DHT22;11746;50.876;4.246;2022-12-31T14:47:23;15.80;99.90
23156;DHT22;11746;50.876;4.246;2022-12-31T14:55:37;15.70;99.90
23156;DHT22;11746;50.876;4.246;2022-12-31T14:58:21;15.60;99.90
23156;DHT22;11746;50.876;4.246;2022-12-31T15:00:53;15.60;99.90
23156;DHT22;11746;50.876;4.246;2022-12-31T15:03:45;15.70;99.90
23156;DHT22;11746;50.876;4.246;2022-12-31T15:11:36;15.70;99.90
23156;DHT22;11746;50.876;4.246;2022-12-31T15:22:36;15.60;99.90
23156;DHT22;11746;50.876;4.246;2022-12-31T15:25:31;15.70;99.90
23156;DHT22;11746;50.876;4.246;2022-12-31T15:27:59;15.80;99.90
23156;DHT22;11746;50.876;4.246;2022-12-31T15:30:39;15.80;99.90
23156;DHT22;11746;50.876;4.246;2022-12-31T15:33:32;15.80;99.90
23156;DHT22;11746;50.876;4.246;2022-12-31T15:36:19;15.80;99.90
23156;DHT22;11746;50.876;4.246;2022-12-31T15:38:45;15.80;99.90
23156;DHT22;11746;50.876;4.246;2022-12-31T15:46:19;15.70;99.90
23156;DHT22;11746;50.876;4.246;2022-12-31T15:48:55;15.60;99.90
23156;DHT22;11746;50.876;4.246;2022-12-31T15:51:29;15.60;99.90
23156;DHT22;11746;50.876;4.246;2022-12-31T15:53:59;15.60;99.90
23156;DHT22;11746;50.876;4.246;2022-12-31T15:56:40;15.60;99.90
23156;DHT22;11746;50.876;4.246;2022-12-31T15:59:15;15.50;99.90
23156;DHT22;11746;50.876;4.246;2022-12-31T16:01:43;15.50;99.90
23156;DHT22;11746;50.876;4.246;2022-12-31T16:04:26;15.50;99.90
23156;DHT22;11746;50.876;4.246;2022-12-31T16:06:53;15.50;99.90
23156;DHT22;11746;50.876;4.246;2022-12-31T16:09:29;15.60;99.90
23156;DHT22;11746;50.876;4.246;2022-12-31T16:11:56;15.50;99.90
23156;DHT22;11746;50.876;4.246;2022-12-31T16:14:24;15.50;99.90
23156;DHT22;11746;50.876;4.246;2022-12-31T16:16:53;15.60;99.90
23156;DHT22;11746;50.876;4.246;2022-12-31T16:22:16;15.40;99.90
23156;DHT22;11746;50.876;4.246;2022-12-31T16:24:44;15.40;99.90
23156;DHT22;11746;50.876;4.246;2022-12-31T16:27:16;15.40;99.90
23156;DHT22;11746;50.876;4.246;2022-12-31T16:29:48;15.30;99.90
23156;DHT22;11746;50.876;4.246;2022-12-31T16:32:18;15.30;99.90
23156;DHT22;11746;50.876;4.246;2022-12-31T16:34:46;15.30;99.90
23156;DHT22;11746;50.876;4.246;2022-12-31T16:37:18;15.20;99.90
23156;DHT22;11746;50.876;4.246;2022-12-31T16:42:26;15.10;99.90
23156;DHT22;11746;50.876;4.246;2022-12-31T16:44:54;15.10;99.90
23156;DHT22;11746;50.876;4.246;2022-12-31T16:47:24;15.00;99.90
23156;DHT22;11746;50.876;4.246;2022-12-31T16:50:00;15.10;99.90
23156;DHT22;11746;50.876;4.246;2022-12-31T16:52:34;15.10;99.90
23156;DHT22;11746;50.876;4.246;2022-12-31T16:55:06;15.00;99.90
23156;DHT22;11746;50.876;4.246;2022-12-31T16:57:35;15.00;99.90
23156;DHT22;11746;50.876;4.246;2022-12-31T17:00:05;15.00;99.90
23156;DHT22;11746;50.876;4.246;2022-12-31T17:02:40;15.00;99.90
23156;DHT22;11746;50.876;4.246;2022-12-31T17:05:22;15.00;99.90
23156;DHT22;11746;50.876;4.246;2022-12-31T17:07:49;15.10;99.90
23156;DHT22;11746;50.876;4.246;2022-12-31T17:10:22;15.00;99.90
23156;DHT22;11746;50.876;4.246;2022-12-31T17:12:56;14.90;99.90
23156;DHT22;11746;50.876;4.246;2022-12-31T17:15:36;15.00;99.90
23156;DHT22;11746;50.876;4.246;2022-12-31T17:18:03;15.00;99.90
23156;DHT22;11746;50.876;4.246;2022-12-31T17:20:31;15.10;99.90
23156;DHT22;11746;50.876;4.246;2022-12-31T17:23:02;15.00;99.90
23156;DHT22;11746;50.876;4.246;2022-12-31T17:25:31;15.00;99.90
23156;DHT22;11746;50.876;4.246;2022-12-31T17:28:03;15.00;99.90
23156;DHT22;11746;50.876;4.246;2022-12-31T17:33:04;15.10;99.90
23156;DHT22;11746;50.876;4.246;2022-12-31T17:35:54;15.20;99.90
23156;DHT22;11746;50.876;4.246;2022-12-31T17:41:33;15.20;99.90
23156;DHT22;11746;50.876;4.246;2022-12-31T17:43:35;15.20;99.90
23156;DHT22;11746;50.876;4.246;2022-12-31T17:46:08;15.20;99.90
23156;DHT22;11746;50.876;4.246;2022-12-31T17:48:36;15.20;99.90
23156;DHT22;11746;50.876;4.246;2022-12-31T17:51:02;15.20;99.90
23156;DHT22;11746;50.876;4.246;2022-12-31T17:53:28;15.20;99.90
23156;DHT22;11746;50.876;4.246;2022-12-31T17:56:02;15.20;99.90
23156;DHT22;11746;50.876;4.246;2022-12-31T18:01:06;15.20;99.90
23156;DHT22;11746;50.876;4.246;2022-12-31T18:03:32;15.10;99.90
23156;DHT22;11746;50.876;4.246;2022-12-31T18:05:58;15.20;99.90
23156;DHT22;11746;50.876;4.246;2022-12-31T18:08:27;15.20;99.90
23156;DHT22;11746;50.876;4.246;2022-12-31T18:10:53;15.20;99.90
23156;DHT22;11746;50.876;4.246;2022-12-31T18:13:24;15.20;99.90
23156;DHT22;11746;50.876;4.246;2022-12-31T18:15:50;15.20;99.90
23156;DHT22;11746;50.876;4.246;2022-12-31T18:18:24;15.30;99.90
23156;DHT22;11746;50.876;4.246;2022-12-31T18:20:59;15.30;99.90
23156;DHT22;11746;50.876;4.246;2022-12-31T18:23:32;15.50;99.90
23156;DHT22;11746;50.876;4.246;2022-12-31T18:25:59;15.60;99.90
23156;DHT22;11746;50.876;4.246;2022-12-31T18:28:25;15.60;99.90
23156;DHT22;11746;50.876;4.246;2022-12-31T18:30:54;15.60;99.90
23156;DHT22;11746;50.876;4.246;2022-12-31T18:33:20;15.70;99.90
23156;DHT22;11746;50.876;4.246;2022-12-31T18:35:52;15.90;99.90
23156;DHT22;11746;50.876;4.246;2022-12-31T18:38:20;15.90;99.90
23156;DHT22;11746;50.876;4.246;2022-12-31T18:40:53;15.90;99.90
23156;DHT22;11746;50.876;4.246;2022-12-31T18:43:20;15.90;99.90
23156;DHT22;11746;50.876;4.246;2022-12-31T18:45:47;15.90;99.90
23156;DHT22;11746;50.876;4.246;2022-12-31T18:48:13;15.80;99.90
23156;DHT22;11746;50.876;4.246;2022-12-31T18:50:39;15.70;99.90
23156;DHT22;11746;50.876;4.246;2022-12-31T18:53:08;15.70;99.90
23156;DHT22;11746;50.876;4.246;2022-12-31T18:55:39;15.70;99.90
23156;DHT22;11746;50.876;4.246;2022-12-31T18:58:09;15.70;99.90
23156;DHT22;11746;50.876;4.246;2022-12-31T19:00:35;15.70;99.90
23156;DHT22;11746;50.876;4.246;2022-12-31T19:03:04;15.60;99.90
23156;DHT22;11746;50.876;4.246;2022-12-31T19:05:31;15.70;99.90
23156;DHT22;11746;50.876;4.246;2022-12-31T19:07:57;15.80;99.90
23156;DHT22;11746;50.876;4.246;2022-12-31T19:10:27;15.90;99.90
23156;DHT22;11746;50.876;4.246;2022-12-31T19:12:53;15.80;99.90
23156;DHT22;11746;50.876;4.246;2022-12-31T19:17:50;15.80;99.90
23156;DHT22;11746;50.876;4.246;2022-12-31T19:20:18;15.80;99.90
23156;DHT22;11746;50.876;4.246;2022-12-31T19:22:44;15.70;99.90
23156;DHT22;11746;50.876;4.246;2022-12-31T19:25:32;15.80;99.90
23156;DHT22;11746;50.876;4.246;2022-12-31T19:28:02;15.80;99.90
23156;DHT22;11746;50.876;4.246;2022-12-31T19:30:33;15.70;99.90
23156;DHT22;11746;50.876;4.246;2022-12-31T19:33:01;15.70;99.90
23156;DHT22;11746;50.876;4.246;2022-12-31T19:35:27;15.60;99.90
23156;DHT22;11746;50.876;4.246;2022-12-31T19:37:53;15.60;99.90
23156;DHT22;11746;50.876;4.246;2022-12-31T19:40:25;15.60;99.90
23156;DHT22;11746;50.876;4.246;2022-12-31T19:42:52;15.60;99.90
23156;DHT22;11746;50.876;4.246;2022-12-31T19:45:24;15.50;99.90
23156;DHT22;11746;50.876;4.246;2022-12-31T19:47:50;15.40;99.90
23156;DHT22;11746;50.876;4.246;2022-12-31T19:50:19;15.40;99.90
23156;DHT22;11746;50.876;4.246;2022-12-31T19:52:50;15.40;99.90
23156;DHT22;11746;50.876;4.246;2022-12-31T19:55:19;15.40;99.90
23156;DHT22;11746;50.876;4.246;2022-12-31T19:57:47;15.40;99.90
23156;DHT22;11746;50.876;4.246;2022-12-31T20:00:14;15.40;99.90
23156;DHT22;11746;50.876;4.246;2022-12-31T20:02:42;15.50;99.90
23156;DHT22;11746;50.876;4.246;2022-12-31T20:05:13;15.50;99.90
23156;DHT22;11746;50.876;4.246;2022-12-31T20:07:39;15.50;99.90
23156;DHT22;11746;50.876;4.246;2022-12-31T20:10:07;15.50;99.90
23156;DHT22;11746;50.876;4.246;2022-12-31T20:12:33;15.50;99.90
23156;DHT22;11746;50.876;4.246;2022-12-31T20:15:01;15.50;99.90
23156;DHT22;11746;50.876;4.246;2022-12-31T20:17:29;15.60;99.90
23156;DHT22;11746;50.876;4.246;2022-12-31T20:19:54;15.60;99.90
23156;DHT22;11746;50.876;4.246;2022-12-31T20:22:20;15.70;99.90
23156;DHT22;11746;50.876;4.246;2022-12-31T20:24:51;15.60;99.90
23156;DHT22;11746;50.876;4.246;2022-12-31T20:27:19;15.60;99.90
23156;DHT22;11746;50.876;4.246;2022-12-31T20:29:48;15.60;99.90